Terminal Aerodrome Forecast
Issued by NWS Albany, NY

Home | Current Version | Previous Version | Text Only | Print | Product List | Glossary On
Versions: 1 2 3 4 5 6 7 8 9 10 11 12 13 14 15 16 17 18 19 20 21
732
FTUS41 KALY 052334
TAFGFL
TAF
KGFL 052334Z 0600/0624 20006KT P6SM BKN050
     FM060800 VRB04KT 4SM BR BKN035
     FM061100 05003KT 2SM BR BKN030
     FM061400 07004KT P6SM SCT030 BKN200
     FM062200 08004KT P6SM OVC100=

USA.gov is the U.S. government's official web portal to all federal, state and local government web resources and services.